Time;durP1;ratioP1;P1;durP2;ratioP2;P2;SDS_P1;SDS_P2;PMS_P1;PMS_P2;Temp;Humidity;BMP_temperature;BMP_pressure;BME280_temperature;BME280_humidity;BME280_pressure;Samples;Min_cycle;Max_cycle;Signal;HPM_P1;HPM_P2
2022/03/22 00:01:27;;;;;;;;;120.25;109.25;7.20;34.40;;;;;;4957936;28;8777;-65
2022/03/22 00:03:53;;;;;;;;;127.50;119.00;7.60;33.50;;;;;;4957996;28;8823;-65
2022/03/22 00:06:19;;;;;;;;;125.00;116.75;7.40;33.80;;;;;;4957879;28;8768;-66
2022/03/22 00:08:45;;;;;;;;;134.00;121.75;7.90;32.90;;;;;;4958016;28;8803;-65
2022/03/22 00:11:12;;;;;;;;;100.75;87.75;8.30;32.20;;;;;;4957850;28;8801;-65
2022/03/22 00:13:39;;;;;;;;;126.25;113.50;8.20;32.10;;;;;;4957972;28;8801;-64
2022/03/22 00:16:07;;;;;;;;;121.25;112.75;8.40;31.60;;;;;;4957860;28;8851;-66
2022/03/22 00:18:34;;;;;;;;;119.25;106.25;8.60;31.20;;;;;;4957610;28;8826;-64
2022/03/22 00:21:00;;;;;;;;;110.50;97.00;8.20;31.60;;;;;;4957588;28;8776;-65
2022/03/22 00:23:26;;;;;;;;;110.50;101.00;8.00;31.80;;;;;;4957592;28;8808;-65
2022/03/22 00:25:52;;;;;;;;;113.50;104.50;7.90;32.10;;;;;;4957670;28;8781;-65
2022/03/22 00:28:19;;;;;;;;;114.75;106.50;7.30;33.00;;;;;;4957315;28;8873;-66
2022/03/22 00:30:44;;;;;;;;;132.00;119.25;6.90;34.00;;;;;;4957346;28;8773;-65
2022/03/22 00:33:10;;;;;;;;;115.75;107.00;6.60;35.10;;;;;;4957339;28;8784;-64
2022/03/22 00:35:38;;;;;;;;;118.00;107.00;6.40;35.00;;;;;;4957462;28;8841;-62
2022/03/22 00:38:11;;;;;;;;;115.00;105.75;6.80;34.70;;;;;;4957300;28;8894;-65
2022/03/22 00:40:39;;;;;;;;;113.50;107.00;6.80;34.30;;;;;;4957294;28;8822;-65
2022/03/22 00:43:05;;;;;;;;;104.25;95.75;6.80;34.30;;;;;;4957110;28;8878;-66
2022/03/22 00:45:33;;;;;;;;;106.00;102.25;6.70;34.90;;;;;;4957022;28;8765;-66
2022/03/22 00:48:00;;;;;;;;;105.75;96.00;6.70;34.80;;;;;;4957147;28;8809;-66
2022/03/22 00:50:30;;;;;;;;;106.75;99.00;6.40;35.40;;;;;;4957277;28;8788;-66
2022/03/22 00:52:57;;;;;;;;;107.75;100.00;6.50;35.30;;;;;;4957264;28;9557;-66
2022/03/22 00:55:24;;;;;;;;;116.00;106.00;6.60;35.30;;;;;;4957014;28;8765;-65
2022/03/22 00:57:52;;;;;;;;;103.50;92.50;6.80;34.60;;;;;;4956905;28;8776;-65
2022/03/22 01:00:20;;;;;;;;;108.50;101.75;6.90;34.20;;;;;;4939880;28;9443;-65
2022/03/22 01:02:49;;;;;;;;;104.25;98.25;6.80;35.00;;;;;;4956713;28;8808;-65
2022/03/22 01:05:19;;;;;;;;;106.75;96.75;6.50;35.30;;;;;;4956981;28;9489;-66
2022/03/22 01:07:50;;;;;;;;;103.50;87.50;6.10;36.50;;;;;;4957063;28;8826;-64
2022/03/22 01:10:19;;;;;;;;;96.50;84.00;5.80;37.10;;;;;;4956990;28;8773;-62
2022/03/22 01:12:47;;;;;;;;;99.75;92.75;6.20;36.70;;;;;;4956925;28;8764;-63
2022/03/22 01:15:22;;;;;;;;;106.25;99.00;6.60;35.60;;;;;;4956658;28;8765;-63
2022/03/22 01:17:51;;;;;;;;;106.00;102.75;6.90;35.10;;;;;;4956721;28;8883;-63
2022/03/22 01:20:22;;;;;;;;;105.75;94.25;6.10;36.70;;;;;;4956829;28;8769;-64
2022/03/22 01:22:49;;;;;;;;;119.50;104.50;6.20;36.50;;;;;;4956499;28;8922;-64
2022/03/22 01:25:25;;;;;;;;;115.75;104.25;5.80;37.40;;;;;;4956540;28;8795;-65
2022/03/22 01:27:51;;;;;;;;;112.50;108.25;6.00;37.60;;;;;;4956460;28;8789;-66
2022/03/22 01:30:22;;;;;;;;;122.75;114.00;6.10;37.60;;;;;;4956453;28;9387;-65
2022/03/22 01:32:53;;;;;;;;;108.75;99.25;6.50;36.50;;;;;;4956485;28;8830;-67
2022/03/22 01:35:20;;;;;;;;;121.25;107.75;6.80;36.00;;;;;;4956656;28;8799;-63
2022/03/22 01:37:50;;;;;;;;;115.75;106.00;7.00;35.50;;;;;;4939163;28;9400;-65
2022/03/22 01:40:21;;;;;;;;;123.00;111.25;7.10;35.00;;;;;;4955446;28;8768;-64
2022/03/22 01:42:48;;;;;;;;;116.50;107.00;7.40;34.40;;;;;;4939270;28;8804;-67
2022/03/22 01:45:15;;;;;;;;;119.75;107.00;7.10;34.50;;;;;;4956462;28;8740;-66
2022/03/22 01:47:43;;;;;;;;;110.00;94.00;6.90;35.00;;;;;;4956274;28;8982;-66
2022/03/22 01:50:12;;;;;;;;;100.75;90.50;7.10;34.80;;;;;;4956398;28;9573;-67
2022/03/22 01:52:40;;;;;;;;;98.50;90.75;6.80;35.40;;;;;;4956122;29;8804;-65
2022/03/22 01:55:07;;;;;;;;;103.00;88.00;6.00;36.90;;;;;;4956159;29;8772;-66
2022/03/22 01:57:34;;;;;;;;;105.00;97.00;5.60;38.40;;;;;;4956123;29;8769;-65
2022/03/22 02:00:02;;;;;;;;;104.25;89.75;5.60;38.60;;;;;;4956079;29;8772;-66
2022/03/22 02:08:06;;;;;;;;;102.00;86.75;5.90;37.90;;;;;;4956137;28;8737;-64
2022/03/22 02:10:31;;;;;;;;;105.25;93.50;6.30;36.90;;;;;;4955992;29;8780;-66
2022/03/22 02:12:57;;;;;;;;;106.25;94.00;6.90;35.80;;;;;;4956847;28;8785;-64
2022/03/22 02:15:23;;;;;;;;;101.50;92.00;5.60;38.00;;;;;;4959692;28;8792;-66
2022/03/22 02:17:50;;;;;;;;;96.25;85.75;5.60;38.70;;;;;;4960159;28;8816;-66
2022/03/22 02:20:16;;;;;;;;;101.75;92.50;6.30;37.70;;;;;;4959764;28;8780;-65
2022/03/22 02:23:06;;;;;;;;;102.00;94.75;5.60;38.60;;;;;;4959653;28;8799;-64
2022/03/22 02:25:35;;;;;;;;;102.75;88.50;6.00;38.60;;;;;;4954645;28;8784;-64
2022/03/22 02:28:03;;;;;;;;;95.50;76.25;6.40;37.00;;;;;;4959791;28;8803;-66
2022/03/22 02:30:30;;;;;;;;;107.25;89.25;6.50;36.90;;;;;;4959519;28;8768;-66
2022/03/22 02:32:59;;;;;;;;;95.00;77.25;5.30;38.40;;;;;;4959563;28;8757;-66
2022/03/22 02:35:25;;;;;;;;;99.50;83.25;5.60;39.40;;;;;;4959783;28;8843;-67
2022/03/22 02:37:52;;;;;;;;;95.75;78.25;5.50;38.70;;;;;;4959458;28;8795;-66
2022/03/22 02:40:18;;;;;;;;;94.50;77.75;5.60;39.20;;;;;;4959453;28;8784;-66
2022/03/22 02:42:47;;;;;;;;;92.25;74.75;6.20;37.80;;;;;;4959536;28;8772;-65
2022/03/22 02:45:13;;;;;;;;;97.00;82.00;6.20;37.30;;;;;;4959297;28;8787;-66
2022/03/22 02:47:39;;;;;;;;;97.25;80.00;6.10;38.60;;;;;;4959334;28;8808;-63
2022/03/22 02:50:07;;;;;;;;;95.25;79.25;6.50;36.60;;;;;;4959239;28;8784;-64
2022/03/22 02:52:33;;;;;;;;;99.50;86.00;6.00;37.80;;;;;;4959176;28;8773;-64
2022/03/22 02:54:59;;;;;;;;;92.75;74.25;5.80;38.20;;;;;;4959297;28;8745;-65
2022/03/22 02:57:25;;;;;;;;;91.00;69.50;5.80;38.70;;;;;;4959401;28;8769;-66
2022/03/22 02:59:50;;;;;;;;;95.00;72.50;6.60;36.60;;;;;;4959286;28;8788;-61
2022/03/22 03:02:16;;;;;;;;;98.50;80.25;7.00;35.60;;;;;;4958979;28;8788;-65
2022/03/22 03:04:42;;;;;;;;;95.00;78.75;6.40;37.00;;;;;;4958917;28;8804;-66
2022/03/22 03:07:08;;;;;;;;;99.25;87.00;6.50;36.30;;;;;;4959207;28;8804;-66
2022/03/22 03:09:33;;;;;;;;;100.50;88.25;5.50;38.10;;;;;;4964483;28;8792;-67
2022/03/22 03:11:59;;;;;;;;;94.00;75.25;5.70;38.60;;;;;;4972667;28;8782;-65
2022/03/22 03:14:40;;;;;;;;;93.50;76.00;5.90;37.80;;;;;;4962446;28;8793;-65
2022/03/22 03:17:12;;;;;;;;;92.75;73.25;6.20;37.60;;;;;;4958784;28;8879;-64
2022/03/22 03:19:38;;;;;;;;;98.25;81.25;6.10;37.70;;;;;;4958747;28;8793;-64
2022/03/22 03:22:04;;;;;;;;;100.25;82.50;6.40;37.20;;;;;;4958907;28;8784;-65
2022/03/22 03:24:31;;;;;;;;;95.00;81.00;6.00;38.00;;;;;;4957833;28;9459;-65
2022/03/22 03:26:58;;;;;;;;;95.00;82.00;6.20;37.80;;;;;;4958382;28;8891;-65
2022/03/22 03:29:24;;;;;;;;;93.00;76.25;6.20;37.40;;;;;;4958843;28;8788;-65
2022/03/22 03:31:50;;;;;;;;;100.50;81.75;6.30;37.50;;;;;;4958563;28;8784;-66
2022/03/22 03:34:17;;;;;;;;;89.25;71.75;6.60;36.40;;;;;;4941429;28;8899;-65
2022/03/22 03:36:43;;;;;;;;;97.00;76.75;6.00;37.60;;;;;;4958532;28;8757;-65
2022/03/22 03:39:10;;;;;;;;;90.75;71.75;6.10;37.60;;;;;;4958212;28;8820;-64
2022/03/22 03:41:54;;;;;;;;;95.50;76.25;5.80;38.20;;;;;;4958342;28;8879;-65
2022/03/22 03:47:08;;;;;;;;;92.00;72.25;4.80;39.90;;;;;;4937729;28;8812;-65
2022/03/22 03:49:45;;;;;;;;;89.25;70.00;5.00;40.00;;;;;;4958389;28;9454;-65
2022/03/22 03:52:14;;;;;;;;;94.50;72.00;4.70;40.60;;;;;;4958406;28;8768;-64
2022/03/22 03:54:41;;;;;;;;;91.50;69.75;5.30;39.70;;;;;;4958322;28;8780;-65
2022/03/22 03:57:07;;;;;;;;;93.25;75.25;5.50;39.00;;;;;;4973431;28;8769;-63
2022/03/22 03:59:34;;;;;;;;;93.00;71.75;5.70;38.80;;;;;;4957943;28;8806;-65
2022/03/22 04:02:01;;;;;;;;;95.50;74.75;5.90;38.20;;;;;;4958209;28;9427;-65
2022/03/22 04:04:27;;;;;;;;;93.00;76.00;6.10;37.60;;;;;;4957848;28;8796;-63
2022/03/22 04:06:53;;;;;;;;;86.50;68.50;6.00;37.50;;;;;;4957824;28;8785;-65
2022/03/22 04:09:19;;;;;;;;;88.75;67.75;5.40;38.70;;;;;;4957798;28;8773;-64
2022/03/22 04:11:45;;;;;;;;;87.75;69.00;5.30;39.40;;;;;;4957767;28;8843;-65
2022/03/22 04:14:13;;;;;;;;;97.50;78.75;5.50;39.10;;;;;;4957950;28;8798;-65
2022/03/22 04:16:39;;;;;;;;;91.50;71.50;5.70;38.80;;;;;;4957756;28;8811;-65
2022/03/22 04:19:08;;;;;;;;;91.25;68.50;5.90;38.00;;;;;;4958101;28;9416;-64
2022/03/22 04:21:39;;;;;;;;;90.75;70.75;6.10;37.60;;;;;;4957815;28;8772;-65
2022/03/22 04:24:07;;;;;;;;;80.75;64.00;6.00;38.00;;;;;;4957757;28;9513;-65
2022/03/22 04:26:37;;;;;;;;;84.75;65.50;6.10;37.50;;;;;;4957742;28;8769;-64
2022/03/22 04:34:33;;;;;;;;;85.50;65.00;5.20;38.90;;;;;;4957473;28;8765;-64
2022/03/22 04:37:00;;;;;;;;;77.75;63.00;4.70;41.60;;;;;;4957199;28;8803;-65
2022/03/22 04:39:28;;;;;;;;;88.75;69.00;4.50;40.90;;;;;;4962044;28;8781;-64
2022/03/22 04:41:55;;;;;;;;;80.50;63.00;4.10;42.10;;;;;;4964513;28;8762;-64
2022/03/22 04:44:21;;;;;;;;;81.25;64.25;4.10;42.50;;;;;;4972374;28;9448;-64
2022/03/22 04:46:47;;;;;;;;;87.75;69.00;4.00;43.70;;;;;;4957033;28;8772;-64
2022/03/22 04:49:13;;;;;;;;;86.50;69.00;3.70;43.00;;;;;;4957355;28;8821;-63
2022/03/22 04:57:08;;;;;;;;;85.75;68.25;3.90;42.50;;;;;;4957069;28;9403;-64
2022/03/22 04:59:34;;;;;;;;;89.50;71.00;3.80;43.10;;;;;;4956931;28;8802;-62
2022/03/22 05:02:00;;;;;;;;;93.50;74.50;3.90;42.50;;;;;;4956804;28;8756;-62
2022/03/22 05:04:25;;;;;;;;;95.50;80.75;4.20;42.30;;;;;;4956779;28;8859;-64
2022/03/22 05:06:53;;;;;;;;;87.75;67.00;4.30;41.50;;;;;;4957016;28;8781;-63
2022/03/22 05:09:19;;;;;;;;;85.25;68.00;4.10;41.40;;;;;;4956994;28;9460;-61
2022/03/22 05:11:45;;;;;;;;;80.25;64.25;4.00;41.50;;;;;;4956772;28;8810;-63
2022/03/22 05:14:11;;;;;;;;;89.00;71.00;3.70;42.40;;;;;;4956653;28;8761;-63
2022/03/22 05:16:39;;;;;;;;;89.25;70.75;3.70;42.50;;;;;;4956587;28;8935;-63
2022/03/22 05:19:05;;;;;;;;;85.50;67.75;4.20;42.00;;;;;;4956965;28;8804;-64
2022/03/22 05:21:31;;;;;;;;;92.00;73.00;4.50;40.40;;;;;;4956566;28;8795;-63
2022/03/22 05:23:57;;;;;;;;;92.50;73.00;4.30;40.70;;;;;;4956430;28;8831;-63
2022/03/22 05:26:25;;;;;;;;;87.75;68.75;4.20;40.80;;;;;;4956716;28;8796;-64
2022/03/22 05:28:54;;;;;;;;;88.00;69.50;4.30;40.80;;;;;;4956382;28;8820;-63
2022/03/22 05:31:21;;;;;;;;;88.25;70.00;4.60;40.20;;;;;;4956447;28;8820;-63
2022/03/22 05:33:48;;;;;;;;;87.25;70.00;4.50;40.10;;;;;;4956650;28;8772;-65
2022/03/22 05:36:15;;;;;;;;;87.25;67.50;4.70;39.60;;;;;;4956586;28;8780;-65
2022/03/22 05:38:41;;;;;;;;;80.50;65.75;4.90;39.30;;;;;;4956869;28;8781;-65
2022/03/22 05:41:08;;;;;;;;;77.00;62.25;5.10;39.10;;;;;;4967405;28;8767;-65
2022/03/22 05:43:35;;;;;;;;;79.75;62.25;4.90;39.30;;;;;;4960035;28;8918;-65
2022/03/22 05:46:02;;;;;;;;;78.50;62.75;4.90;39.40;;;;;;4956342;28;8843;-65
2022/03/22 05:48:29;;;;;;;;;78.50;62.75;5.30;38.40;;;;;;4955658;28;8820;-64
2022/03/22 05:50:56;;;;;;;;;77.75;62.25;5.10;38.70;;;;;;4959281;28;8778;-64
2022/03/22 05:53:22;;;;;;;;;77.25;62.25;5.30;38.60;;;;;;4966471;28;8780;-66
2022/03/22 05:55:48;;;;;;;;;81.50;65.50;5.70;38.00;;;;;;4971744;28;8804;-66
2022/03/22 05:58:14;;;;;;;;;79.50;65.00;5.80;37.70;;;;;;4957214;28;9455;-65
2022/03/22 06:00:40;;;;;;;;;75.25;60.00;5.80;38.40;;;;;;4970302;28;8819;-60
2022/03/22 06:03:06;;;;;;;;;76.00;60.00;5.30;39.30;;;;;;4956029;29;8812;-64
2022/03/22 06:05:32;;;;;;;;;77.75;59.50;4.60;40.40;;;;;;4965184;28;8829;-67
2022/03/22 06:07:59;;;;;;;;;79.00;63.50;4.60;40.90;;;;;;4966129;28;8795;-70
2022/03/22 06:10:27;;;;;;;;;75.00;61.25;4.90;40.90;;;;;;4974909;28;8844;-67
2022/03/22 06:12:55;;;;;;;;;83.50;64.00;5.50;39.90;;;;;;4975344;28;8750;-66
2022/03/22 06:15:24;;;;;;;;;82.00;65.75;5.50;40.10;;;;;;4975210;28;8750;-63
2022/03/22 06:18:02;;;;;;;;;86.00;67.00;5.10;40.40;;;;;;4975285;28;8802;-64
2022/03/22 06:20:29;;;;;;;;;73.50;60.00;4.70;41.70;;;;;;4975519;28;8770;-65
2022/03/22 06:22:56;;;;;;;;;80.50;65.00;4.90;41.70;;;;;;4975355;28;9477;-65
2022/03/22 06:25:22;;;;;;;;;75.50;61.50;5.00;40.90;;;;;;4975202;28;8789;-65
2022/03/22 06:27:50;;;;;;;;;76.00;59.25;5.20;40.60;;;;;;4975461;28;8794;-65
2022/03/22 06:30:17;;;;;;;;;77.75;61.50;5.10;40.30;;;;;;4975477;28;8797;-65
2022/03/22 06:32:45;;;;;;;;;79.25;62.25;5.30;40.40;;;;;;4958097;28;9428;-64
2022/03/22 06:35:22;;;;;;;;;82.00;64.25;5.40;39.90;;;;;;4975076;28;8779;-64
2022/03/22 06:37:48;;;;;;;;;79.50;63.00;5.80;39.20;;;;;;4974854;28;8791;-64
2022/03/22 06:40:16;;;;;;;;;86.00;67.00;5.90;38.80;;;;;;4958014;28;8790;-64
2022/03/22 06:42:43;;;;;;;;;81.50;65.00;5.70;38.40;;;;;;4974906;28;8905;-64
2022/03/22 06:45:13;;;;;;;;;84.75;67.50;5.80;39.30;;;;;;4975200;28;8763;-65
2022/03/22 06:47:41;;;;;;;;;81.75;65.25;5.90;38.40;;;;;;4975047;28;8806;-65
2022/03/22 06:50:12;;;;;;;;;86.00;67.00;5.80;38.40;;;;;;4975218;28;8869;-65
2022/03/22 06:52:38;;;;;;;;;80.50;63.00;5.80;38.20;;;;;;4975224;28;8799;-66
2022/03/22 06:55:05;;;;;;;;;79.75;64.25;6.10;38.40;;;;;;4974908;28;8762;-63
2022/03/22 06:57:31;;;;;;;;;82.75;65.00;6.10;37.80;;;;;;4974906;28;8786;-65
2022/03/22 06:59:58;;;;;;;;;79.25;62.00;6.00;38.20;;;;;;4976763;28;8771;-64
2022/03/22 07:02:24;;;;;;;;;77.00;62.50;6.20;38.20;;;;;;4978643;28;8774;-64
2022/03/22 07:04:51;;;;;;;;;81.75;66.00;6.40;37.90;;;;;;4978266;28;8794;-64
2022/03/22 07:07:17;;;;;;;;;82.50;64.50;6.40;37.70;;;;;;4978459;28;8797;-65
2022/03/22 07:09:43;;;;;;;;;78.25;62.25;6.40;37.90;;;;;;4978457;28;8775;-65
2022/03/22 07:12:10;;;;;;;;;77.00;61.75;6.40;37.80;;;;;;4978053;28;8762;-63
2022/03/22 07:14:40;;;;;;;;;75.50;60.25;6.50;37.90;;;;;;4978290;28;8767;-64
2022/03/22 07:17:07;;;;;;;;;71.50;59.00;6.50;37.80;;;;;;4978280;28;8790;-65
2022/03/22 07:19:34;;;;;;;;;79.50;63.00;6.60;37.20;;;;;;4978281;28;8778;-64
2022/03/22 07:22:01;;;;;;;;;73.75;59.00;6.50;37.70;;;;;;4978099;28;9502;-64
2022/03/22 07:24:27;;;;;;;;;74.00;58.25;6.40;38.00;;;;;;4977876;28;8794;-66
2022/03/22 07:26:53;;;;;;;;;79.25;61.75;6.70;37.60;;;;;;4978115;28;8794;-64
2022/03/22 07:29:19;;;;;;;;;80.75;64.50;7.10;37.00;;;;;;4978019;28;8809;-63
2022/03/22 07:31:44;;;;;;;;;77.50;59.75;7.30;36.90;;;;;;4977835;28;8778;-65
2022/03/22 07:34:12;;;;;;;;;78.50;61.25;7.40;36.70;;;;;;4977773;28;8789;-63
2022/03/22 07:36:39;;;;;;;;;77.25;61.25;7.30;36.50;;;;;;4978037;28;8778;-62
2022/03/22 07:39:08;;;;;;;;;75.50;61.00;7.20;36.90;;;;;;4977633;28;8799;-65
2022/03/22 07:41:36;;;;;;;;;74.50;60.00;7.10;37.10;;;;;;4977952;28;8800;-64
2022/03/22 07:44:03;;;;;;;;;77.00;60.00;7.20;36.50;;;;;;4977782;28;8798;-65
2022/03/22 07:46:30;;;;;;;;;77.25;62.50;7.20;37.00;;;;;;4977529;28;8766;-65
2022/03/22 07:52:57;;;;;;;;;81.50;65.00;7.30;37.40;;;;;;4978225;28;8879;-65
2022/03/22 07:54:26;;;;;;;;;72.25;58.50;7.50;37.70;;;;;;4977634;28;8758;-64
2022/03/22 07:56:52;;;;;;;;;75.75;59.50;8.10;36.60;;;;;;4977550;28;8852;-62
2022/03/22 07:59:18;;;;;;;;;77.00;60.00;8.10;35.90;;;;;;4977294;28;8786;-66
2022/03/22 08:01:44;;;;;;;;;81.25;64.25;7.70;36.30;;;;;;4977447;28;8762;-65
2022/03/22 08:04:10;;;;;;;;;78.00;60.25;7.70;36.70;;;;;;4977218;28;8921;-62
2022/03/22 08:06:35;;;;;;;;;74.00;59.50;8.20;36.20;;;;;;4976821;28;8786;-65
2022/03/22 08:09:01;;;;;;;;;79.50;63.50;8.00;35.90;;;;;;4977202;28;8763;-63
2022/03/22 08:11:27;;;;;;;;;78.00;62.00;8.00;36.10;;;;;;4976638;28;8766;-65
2022/03/22 08:13:53;;;;;;;;;79.25;62.00;8.10;36.00;;;;;;4977230;28;8792;-65
2022/03/22 08:16:19;;;;;;;;;78.50;62.25;8.00;36.20;;;;;;4977122;28;8900;-64
2022/03/22 08:18:45;;;;;;;;;77.75;61.00;8.20;36.40;;;;;;4977515;28;8803;-63
2022/03/22 08:21:10;;;;;;;;;81.25;61.75;8.40;36.00;;;;;;4976847;28;8886;-65
2022/03/22 08:23:36;;;;;;;;;84.25;64.75;8.50;35.80;;;;;;4977004;28;8880;-63
2022/03/22 08:26:02;;;;;;;;;82.00;66.25;8.50;35.80;;;;;;4976800;28;8770;-65
2022/03/22 08:28:28;;;;;;;;;75.00;61.25;8.40;36.80;;;;;;4977004;28;8794;-65
2022/03/22 08:30:53;;;;;;;;;83.75;70.75;8.20;37.60;;;;;;4976714;28;9412;-64
2022/03/22 08:33:19;;;;;;;;;88.75;71.00;8.30;37.10;;;;;;4976449;28;8771;-63
2022/03/22 08:35:49;;;;;;;;;88.00;71.25;8.40;37.50;;;;;;4976923;28;8762;-64
2022/03/22 08:38:20;;;;;;;;;86.00;68.00;8.70;37.10;;;;;;4976551;28;8810;-64
2022/03/22 08:40:47;;;;;;;;;89.50;72.75;8.80;36.90;;;;;;4976593;28;8794;-65
2022/03/22 08:43:13;;;;;;;;;87.00;71.75;9.10;36.60;;;;;;4976448;28;8836;-64
2022/03/22 08:45:39;;;;;;;;;81.25;64.25;9.10;36.90;;;;;;4976435;28;8771;-65
2022/03/22 08:48:12;;;;;;;;;87.50;72.00;9.40;36.00;;;;;;4976543;28;8794;-64
2022/03/22 08:50:44;;;;;;;;;79.25;61.50;9.30;36.20;;;;;;4976371;28;8778;-65
2022/03/22 08:53:11;;;;;;;;;84.00;71.75;9.40;36.40;;;;;;4976623;28;8778;-65
2022/03/22 08:55:37;;;;;;;;;79.50;63.00;9.40;35.90;;;;;;4976314;28;8774;-63
2022/03/22 08:58:05;;;;;;;;;63.75;53.50;9.30;34.80;;;;;;4976442;28;8852;-64
2022/03/22 09:00:35;;;;;;;;;76.25;59.25;9.40;34.60;;;;;;4976334;28;9459;-63
2022/03/22 09:03:03;;;;;;;;;72.50;57.25;9.50;34.20;;;;;;4976370;28;9015;-65
2022/03/22 09:08:13;;;;;;;;;70.50;56.75;9.80;34.70;;;;;;4976210;28;8754;-64
2022/03/22 09:10:39;;;;;;;;;77.00;62.00;10.10;34.00;;;;;;4976029;28;8787;-65
2022/03/22 09:13:07;;;;;;;;;74.50;58.25;10.00;33.90;;;;;;4976204;28;9440;-65
2022/03/22 09:15:38;;;;;;;;;75.75;58.75;10.50;34.00;;;;;;4976196;28;9433;-65
2022/03/22 09:18:05;;;;;;;;;78.00;60.00;10.40;32.90;;;;;;4976000;28;8809;-65
2022/03/22 09:20:32;;;;;;;;;72.25;56.25;10.20;33.50;;;;;;4975844;28;8762;-65
2022/03/22 09:23:00;;;;;;;;;72.25;59.00;10.60;34.00;;;;;;4975671;28;8821;-63
2022/03/22 09:25:27;;;;;;;;;78.25;64.00;10.60;33.30;;;;;;4975798;28;8771;-64
2022/03/22 09:27:54;;;;;;;;;73.50;59.25;10.80;32.60;;;;;;4975649;28;8788;-63
2022/03/22 09:30:20;;;;;;;;;74.50;59.00;10.50;33.40;;;;;;4958500;28;8778;-63
2022/03/22 09:32:46;;;;;;;;;67.50;54.50;10.60;33.10;;;;;;4975629;28;8779;-65
2022/03/22 09:35:14;;;;;;;;;73.50;58.50;10.60;33.00;;;;;;4975642;28;8755;-63
2022/03/22 09:37:42;;;;;;;;;72.25;57.75;11.00;33.60;;;;;;4975389;28;8754;-65
2022/03/22 09:40:12;;;;;;;;;75.75;60.00;11.00;32.60;;;;;;4975673;28;8808;-65
2022/03/22 09:42:42;;;;;;;;;72.75;57.25;11.10;33.30;;;;;;4975425;28;8837;-64
2022/03/22 09:45:18;;;;;;;;;69.75;55.25;11.10;32.30;;;;;;4975373;28;8830;-65
2022/03/22 09:47:45;;;;;;;;;70.75;56.25;11.50;32.70;;;;;;4975458;28;8805;-65
2022/03/22 09:50:13;;;;;;;;;64.75;53.75;11.80;31.10;;;;;;4958140;28;8783;-65
2022/03/22 09:52:40;;;;;;;;;68.00;53.25;12.20;30.20;;;;;;4975105;28;8762;-65
2022/03/22 09:55:07;;;;;;;;;67.50;53.25;12.30;29.80;;;;;;4975599;28;8762;-64
2022/03/22 09:57:34;;;;;;;;;68.75;56.00;12.10;29.60;;;;;;4975506;28;8758;-65
2022/03/22 10:00:00;;;;;;;;;70.25;57.00;12.10;29.70;;;;;;4975390;28;8763;-64
2022/03/22 10:02:32;;;;;;;;;66.50;53.25;12.10;29.60;;;;;;4975299;28;8853;-63
2022/03/22 10:04:58;;;;;;;;;65.00;51.75;11.90;29.80;;;;;;4975384;28;9506;-65
2022/03/22 10:07:27;;;;;;;;;60.00;50.00;12.30;30.00;;;;;;4975363;28;8766;-65
2022/03/22 10:09:58;;;;;;;;;67.75;54.00;12.40;29.40;;;;;;4975543;28;8889;-64
2022/03/22 10:12:37;;;;;;;;;65.50;52.50;12.50;29.40;;;;;;4975632;28;9721;-64
2022/03/22 10:15:10;;;;;;;;;64.00;50.00;12.60;29.20;;;;;;4975262;28;8778;-66
2022/03/22 10:17:37;;;;;;;;;64.00;51.50;12.90;28.90;;;;;;4975278;28;9483;-65
2022/03/22 10:20:07;;;;;;;;;64.00;52.25;12.80;28.90;;;;;;4975145;28;8804;-65
2022/03/22 10:22:34;;;;;;;;;68.25;55.00;12.70;29.70;;;;;;4975324;28;8871;-65
2022/03/22 10:25:03;;;;;;;;;63.25;51.00;13.00;29.80;;;;;;4975016;28;8802;-63
2022/03/22 10:27:34;;;;;;;;;68.00;53.00;13.00;29.00;;;;;;4975268;28;9543;-65
2022/03/22 10:30:05;;;;;;;;;63.75;50.75;13.30;28.80;;;;;;4975154;28;8774;-64
2022/03/22 10:32:43;;;;;;;;;73.00;55.75;13.60;28.20;;;;;;4975372;28;8864;-64
2022/03/22 10:35:33;;;;;;;;;68.25;54.25;13.80;27.70;;;;;;4977220;28;8786;-63
2022/03/22 10:38:02;;;;;;;;;58.25;48.00;13.90;28.60;;;;;;4978702;28;8845;-65
2022/03/22 10:40:44;;;;;;;;;63.25;51.00;13.80;27.80;;;;;;4978757;28;8763;-65
2022/03/22 10:43:22;;;;;;;;;65.75;53.25;14.00;28.10;;;;;;4978992;28;8797;-65
2022/03/22 10:45:49;;;;;;;;;67.50;55.00;14.60;28.10;;;;;;4978686;28;8785;-65
2022/03/22 10:48:17;;;;;;;;;68.50;54.00;14.50;27.00;;;;;;4978858;28;8830;-65
2022/03/22 10:50:48;;;;;;;;;62.25;51.00;14.50;26.60;;;;;;4978556;28;8877;-65
2022/03/22 10:53:19;;;;;;;;;70.50;54.00;14.60;27.80;;;;;;4978680;28;8797;-64
2022/03/22 10:55:47;;;;;;;;;62.00;50.00;14.50;26.60;;;;;;4978476;28;8762;-64
2022/03/22 10:58:14;;;;;;;;;61.75;51.00;14.80;26.00;;;;;;4978706;28;8869;-68
2022/03/22 11:00:44;;;;;;;;;62.50;50.00;15.30;25.70;;;;;;4978475;28;8774;-69
2022/03/22 11:03:12;;;;;;;;;60.75;49.50;15.60;25.30;;;;;;4976952;28;9582;-66
2022/03/22 11:05:40;;;;;;;;;63.75;52.25;15.50;25.40;;;;;;4978434;28;9692;-64
2022/03/22 11:08:07;;;;;;;;;61.25;49.00;15.10;25.00;;;;;;4978398;28;8801;-65
2022/03/22 11:10:33;;;;;;;;;58.00;46.75;15.20;24.90;;;;;;4978210;28;8783;-65
2022/03/22 11:13:00;;;;;;;;;57.50;47.50;15.70;24.40;;;;;;4978001;28;8798;-69
2022/03/22 11:15:54;;;;;;;;;61.50;48.50;16.10;24.20;;;;;;4977418;28;8788;-71
2022/03/22 11:18:21;;;;;;;;;56.75;46.25;16.10;23.90;;;;;;4976136;28;8896;-66
2022/03/22 11:21:07;;;;;;;;;59.25;47.75;16.40;23.90;;;;;;4961172;28;8775;-71
2022/03/22 11:23:33;;;;;;;;;76.75;60.00;16.40;23.50;;;;;;4977717;28;8917;-68
2022/03/22 11:26:11;;;;;;;;;76.50;64.75;16.50;24.80;;;;;;4977841;28;8770;-66
2022/03/22 11:28:38;;;;;;;;;53.25;43.25;16.70;24.60;;;;;;4977831;28;8778;-67
2022/03/22 11:31:06;;;;;;;;;55.75;44.25;16.80;23.10;;;;;;4977253;28;8767;-68
2022/03/22 11:36:19;;;;;;;;;58.25;46.75;18.00;23.40;;;;;;4977807;28;9361;-67
2022/03/22 11:38:51;;;;;;;;;53.00;43.00;18.30;22.20;;;;;;4977790;28;9429;-67
2022/03/22 11:44:13;;;;;;;;;56.75;45.75;18.50;23.10;;;;;;4977548;28;9419;-69
2022/03/22 11:46:39;;;;;;;;;59.75;49.75;22.90;19.70;;;;;;4975862;28;8791;-68
2022/03/22 11:49:22;;;;;;;;;54.33;45.67;27.00;17.90;;;;;;4977834;28;8801;-68
2022/03/22 11:51:56;;;;;;;;;49.67;42.67;29.70;15.90;;;;;;4977416;28;8802;-67
2022/03/22 11:54:24;;;;;;;;;46.67;39.33;30.90;14.80;;;;;;4977722;28;8770;-69
2022/03/22 11:56:53;;;;;;;;;47.33;41.00;31.70;15.00;;;;;;4977259;28;8771;-67
2022/03/22 11:59:21;;;;;;;;;45.00;38.67;29.80;14.70;;;;;;4977389;28;8817;-73
2022/03/22 12:02:26;;;;;;;;;45.67;39.67;31.10;15.20;;;;;;4977045;28;8853;-70
2022/03/22 12:04:55;;;;;;;;;44.00;37.67;29.90;14.20;;;;;;4971669;28;8802;-71
2022/03/22 12:07:29;;;;;;;;;43.67;37.67;29.80;14.80;;;;;;4973574;28;8866;-70
2022/03/22 12:10:16;;;;;;;;;39.00;35.33;31.20;14.10;;;;;;4976505;28;8746;-72
2022/03/22 12:12:50;;;;;;;;;39.00;34.67;35.40;13.60;;;;;;4975115;28;9435;-72
2022/03/22 12:15:21;;;;;;;;;43.00;37.67;35.00;12.40;;;;;;4976141;28;8828;-74
2022/03/22 12:17:48;;;;;;;;;40.33;34.33;34.20;12.90;;;;;;4976539;28;8783;-63
2022/03/22 12:20:19;;;;;;;;;41.33;36.00;31.20;13.70;;;;;;4977150;28;9474;-65
2022/03/22 12:22:46;;;;;;;;;40.00;36.00;31.10;14.00;;;;;;4975039;28;8854;-61
2022/03/22 12:25:15;;;;;;;;;45.67;39.33;30.00;14.20;;;;;;4975111;28;8814;-61
2022/03/22 12:27:56;;;;;;;;;39.67;35.67;32.20;13.80;;;;;;4960214;28;9566;-61
2022/03/22 12:30:28;;;;;;;;;45.67;39.00;34.60;12.90;;;;;;4957140;28;8773;-62
2022/03/22 12:32:57;;;;;;;;;38.67;35.00;35.60;12.80;;;;;;4957443;28;8866;-62
2022/03/22 12:35:23;;;;;;;;;46.67;40.33;35.70;12.40;;;;;;4957311;28;8785;-61
2022/03/22 12:37:51;;;;;;;;;42.33;37.00;33.50;12.30;;;;;;4957034;28;9433;-62
2022/03/22 12:40:18;;;;;;;;;41.67;36.33;33.90;12.80;;;;;;4957285;28;8808;-62
2022/03/22 12:42:45;;;;;;;;;42.67;37.33;34.70;12.20;;;;;;4964535;28;8759;-65
2022/03/22 12:45:11;;;;;;;;;37.67;34.67;36.20;12.50;;;;;;4975747;28;8802;-63
2022/03/22 12:47:41;;;;;;;;;36.33;33.33;36.30;12.00;;;;;;4975880;28;8798;-63
2022/03/22 12:50:12;;;;;;;;;31.67;30.00;33.80;12.00;;;;;;4973743;28;8778;-62
2022/03/22 12:52:38;;;;;;;;;38.00;34.00;34.20;13.10;;;;;;4972498;28;8788;-71
2022/03/22 12:55:06;;;;;;;;;35.00;32.00;35.60;12.10;;;;;;4965731;28;8781;-62
2022/03/22 12:57:34;;;;;;;;;36.33;33.00;36.10;11.60;;;;;;4956667;28;8787;-62
2022/03/22 13:00:00;;;;;;;;;34.33;32.00;38.10;11.70;;;;;;4956855;28;8765;-62
2022/03/22 13:02:27;;;;;;;;;33.67;31.33;40.30;10.90;;;;;;4957103;28;8777;-70
2022/03/22 13:04:53;;;;;;;;;33.00;30.67;40.10;10.70;;;;;;4939605;28;8847;-64
2022/03/22 13:07:22;;;;;;;;;22.33;22.33;37.00;11.10;;;;;;4956783;28;8784;-63
2022/03/22 13:12:34;;;;;;;;;28.00;28.00;36.20;11.70;;;;;;4956869;28;8875;-62
2022/03/22 13:15:08;;;;;;;;;27.00;27.00;35.30;11.40;;;;;;4956603;28;8776;-64
2022/03/22 13:17:42;;;;;;;;;26.00;26.00;34.90;11.70;;;;;;4956783;28;8918;-64
2022/03/22 13:20:44;;;;;;;;;25.67;25.67;34.60;12.40;;;;;;4956488;28;8769;-64